Time;durP1;ratioP1;P1;durP2;ratioP2;P2;SDS_P1;SDS_P2;PMS_P1;PMS_P2;Temp;Humidity;BMP_temperature;BMP_pressure;BME280_temperature;BME280_humidity;BME280_pressure;Samples;Min_cycle;Max_cycle;Signal;HPM_P1;HPM_P2
2021/12/16 00:09:01;;;;;;;26.10;9.25;;;;;;;;;;4980098;28;20121;-74
2021/12/16 00:31:24;;;;;;;20.23;8.48;;;;;;;;;;4990885;28;20117;-74
2021/12/16 00:34:02;;;;;;;20.50;9.15;;;;;;;;;;4986274;28;20141;-74
2021/12/16 00:36:31;;;;;;;29.13;9.95;;;;;;;;;;4987520;28;20110;-74
2021/12/16 00:38:58;;;;;;;22.33;9.32;;;;;;;;;;4996928;28;20168;-74
2021/12/16 00:41:26;;;;;;;21.20;9.00;;;;;;;;;;4988546;28;20050;-74
2021/12/16 00:44:01;;;;;;;24.15;10.02;;;;;;;;;;4987246;28;20180;-74
2021/12/16 00:54:46;;;;;;;24.75;9.25;;;;;;;;;;4987342;28;20141;-74
2021/12/16 00:57:15;;;;;;;23.45;8.93;;;;;;;;;;4993631;28;20089;-74
2021/12/16 00:59:46;;;;;;;24.08;8.82;;;;;;;;;;4986170;28;20133;-74
2021/12/16 01:02:32;;;;;;;24.08;9.30;;;;;;;;;;4991112;28;20133;-74
2021/12/16 01:05:30;;;;;;;23.27;9.00;;;;;;;;;;4987209;28;20764;-74
2021/12/16 01:35:35;;;;;;;19.33;9.23;;;;;;;;;;4986526;28;20146;-74
2021/12/16 01:38:40;;;;;;;20.80;8.77;;;;;;;;;;4993206;28;20129;-74
2021/12/16 01:46:37;;;;;;;20.05;9.27;;;;;;;;;;4980799;28;20054;-74
2021/12/16 01:57:22;;;;;;;30.00;10.73;;;;;;;;;;4989682;28;20119;-74
2021/12/16 01:59:58;;;;;;;25.85;10.70;;;;;;;;;;4978811;28;20771;-74
2021/12/16 02:02:50;;;;;;;30.42;13.38;;;;;;;;;;4991475;28;20050;-74
2021/12/16 02:05:28;;;;;;;26.77;10.65;;;;;;;;;;4985748;28;20054;-75
2021/12/16 02:10:33;;;;;;;37.47;12.75;;;;;;;;;;4990656;28;20077;-74
2021/12/16 02:37:29;;;;;;;30.75;12.02;;;;;;;;;;4989708;28;20085;-74
2021/12/16 02:39:56;;;;;;;30.00;11.80;;;;;;;;;;4997117;28;20129;-74
2021/12/16 02:42:32;;;;;;;34.63;12.70;;;;;;;;;;4989381;28;20042;-74
2021/12/16 02:50:25;;;;;;;39.08;12.52;;;;;;;;;;4986754;28;20661;-74
2021/12/16 02:52:53;;;;;;;35.03;12.35;;;;;;;;;;4989030;28;20384;-74
2021/12/16 02:55:21;;;;;;;35.47;13.10;;;;;;;;;;4995857;28;20133;-74
2021/12/16 02:57:59;;;;;;;33.15;13.27;;;;;;;;;;4998453;28;20074;-74
2021/12/16 03:00:29;;;;;;;30.92;13.23;;;;;;;;;;4990790;28;20558;-74
2021/12/16 03:02:57;;;;;;;31.42;12.32;;;;;;;;;;5003774;28;20133;-74
2021/12/16 03:05:24;;;;;;;42.10;12.93;;;;;;;;;;4988564;28;20693;-74
2021/12/16 03:07:52;;;;;;;32.33;14.10;;;;;;;;;;4992297;28;20129;-74
2021/12/16 03:12:59;;;;;;;37.30;13.43;;;;;;;;;;4988640;28;20161;-74
2021/12/16 03:21:31;;;;;;;28.20;12.05;;;;;;;;;;4988448;28;20134;-74
2021/12/16 03:24:22;;;;;;;30.55;13.02;;;;;;;;;;4987701;28;20129;-74
2021/12/16 03:30:03;;;;;;;37.17;12.52;;;;;;;;;;4998177;28;20134;-74
2021/12/16 03:35:28;;;;;;;42.75;12.82;;;;;;;;;;4987972;28;20142;-74
2021/12/16 03:38:00;;;;;;;32.60;12.68;;;;;;;;;;4990174;28;20062;-74
2021/12/16 03:40:28;;;;;;;40.20;13.65;;;;;;;;;;4993908;28;20042;-74
2021/12/16 03:42:57;;;;;;;33.97;12.90;;;;;;;;;;4987230;28;20157;-74
2021/12/16 03:48:16;;;;;;;40.42;13.73;;;;;;;;;;4988566;28;20157;-74
2021/12/16 03:50:44;;;;;;;44.47;14.32;;;;;;;;;;4988308;28;20159;-74
2021/12/16 03:53:16;;;;;;;42.70;13.90;;;;;;;;;;4988539;28;20086;-74
2021/12/16 03:55:44;;;;;;;40.15;14.52;;;;;;;;;;4991105;28;20050;-74
2021/12/16 03:58:12;;;;;;;41.45;12.73;;;;;;;;;;5008072;28;20050;-74
2021/12/16 04:00:43;;;;;;;46.00;14.75;;;;;;;;;;4992894;28;20149;-74
2021/12/16 04:03:11;;;;;;;53.17;15.20;;;;;;;;;;4987506;28;20132;-74
2021/12/16 04:05:39;;;;;;;45.45;14.27;;;;;;;;;;4987882;28;20454;-74
2021/12/16 04:08:07;;;;;;;49.17;14.48;;;;;;;;;;4996095;28;20054;-74
2021/12/16 04:10:39;;;;;;;41.40;14.23;;;;;;;;;;4988208;28;20129;-74
2021/12/16 04:13:11;;;;;;;51.67;15.60;;;;;;;;;;4988515;28;20050;-74
2021/12/16 04:15:39;;;;;;;43.47;14.88;;;;;;;;;;4985958;28;20125;-74
2021/12/16 04:18:06;;;;;;;49.30;15.15;;;;;;;;;;4985753;28;20157;-74
2021/12/16 04:20:34;;;;;;;41.80;14.85;;;;;;;;;;4985944;28;20156;-74
2021/12/16 04:23:02;;;;;;;64.90;15.55;;;;;;;;;;4987991;28;20133;-74
2021/12/16 04:25:31;;;;;;;41.47;15.45;;;;;;;;;;4989813;28;20128;-74
2021/12/16 04:28:01;;;;;;;49.58;15.10;;;;;;;;;;4988944;28;20054;-74
2021/12/16 04:30:29;;;;;;;44.40;15.32;;;;;;;;;;4989839;28;20129;-74
2021/12/16 04:32:56;;;;;;;43.13;14.38;;;;;;;;;;4989719;28;20064;-74
2021/12/16 04:35:23;;;;;;;49.63;15.75;;;;;;;;;;4986941;28;20499;-74
2021/12/16 04:37:52;;;;;;;43.03;15.45;;;;;;;;;;4986897;28;20050;-74
2021/12/16 04:40:19;;;;;;;47.28;15.25;;;;;;;;;;4996884;28;20145;-74
2021/12/16 04:42:49;;;;;;;55.90;17.40;;;;;;;;;;4986880;28;20129;-74
2021/12/16 04:45:18;;;;;;;47.97;15.15;;;;;;;;;;4986185;28;20137;-74
2021/12/16 04:47:45;;;;;;;46.17;15.90;;;;;;;;;;4986654;28;20133;-74
2021/12/16 04:50:13;;;;;;;44.17;15.93;;;;;;;;;;4986364;28;20499;-74
2021/12/16 04:52:40;;;;;;;42.58;15.23;;;;;;;;;;4985886;28;20149;-74
2021/12/16 04:55:08;;;;;;;56.90;14.57;;;;;;;;;;4987570;28;20490;-74
2021/12/16 04:57:36;;;;;;;52.38;16.02;;;;;;;;;;4987001;28;20505;-74
2021/12/16 05:00:08;;;;;;;43.88;15.50;;;;;;;;;;4994827;28;20052;-74
2021/12/16 05:02:35;;;;;;;33.53;14.65;;;;;;;;;;4997710;28;20974;-74
2021/12/16 05:05:04;;;;;;;42.58;15.55;;;;;;;;;;4986590;28;20050;-74
2021/12/16 05:07:31;;;;;;;59.28;14.88;;;;;;;;;;4992105;28;20114;-74
2021/12/16 05:10:05;;;;;;;68.07;18.00;;;;;;;;;;4996938;28;20054;-74
2021/12/16 05:12:36;;;;;;;57.60;14.82;;;;;;;;;;4985721;28;20181;-74
2021/12/16 05:15:08;;;;;;;55.33;16.20;;;;;;;;;;4984949;28;20081;-74
2021/12/16 05:17:42;;;;;;;52.45;16.17;;;;;;;;;;4983150;28;20146;-74
2021/12/16 05:20:12;;;;;;;52.83;16.67;;;;;;;;;;4985316;28;20133;-74
2021/12/16 05:28:16;;;;;;;56.58;16.38;;;;;;;;;;4965472;28;20060;-74
2021/12/16 05:30:44;;;;;;;58.75;16.75;;;;;;;;;;4983572;28;20042;-74
2021/12/16 05:33:12;;;;;;;56.22;16.52;;;;;;;;;;4985512;28;20133;-74
2021/12/16 05:35:40;;;;;;;54.50;17.38;;;;;;;;;;4992831;28;20050;-74
2021/12/16 05:38:07;;;;;;;55.72;16.20;;;;;;;;;;4990432;28;20547;-74
2021/12/16 05:40:35;;;;;;;55.65;17.20;;;;;;;;;;4994728;28;20602;-74
2021/12/16 05:43:05;;;;;;;52.17;15.95;;;;;;;;;;4984976;28;20101;-75
2021/12/16 05:45:32;;;;;;;48.78;15.25;;;;;;;;;;4985990;28;20077;-75
2021/12/16 05:48:00;;;;;;;58.00;15.55;;;;;;;;;;4986284;28;20472;-75
2021/12/16 05:50:29;;;;;;;57.53;15.75;;;;;;;;;;4985971;28;20042;-75
2021/12/16 05:52:56;;;;;;;56.50;16.90;;;;;;;;;;4987419;28;20699;-75
2021/12/16 05:55:24;;;;;;;57.97;16.98;;;;;;;;;;4997317;28;20499;-75
2021/12/16 05:57:51;;;;;;;59.08;17.20;;;;;;;;;;4990892;28;20125;-75
2021/12/16 06:00:25;;;;;;;53.20;16.52;;;;;;;;;;4991694;28;20484;-75
2021/12/16 06:02:52;;;;;;;55.45;15.40;;;;;;;;;;5006163;28;20562;-75
2021/12/16 06:05:20;;;;;;;48.60;14.68;;;;;;;;;;4992187;28;20052;-75
2021/12/16 06:07:50;;;;;;;53.30;15.68;;;;;;;;;;5001681;28;20057;-75
2021/12/16 06:12:54;;;;;;;49.17;14.90;;;;;;;;;;4992621;28;20086;-74
2021/12/16 06:15:38;;;;;;;51.42;15.27;;;;;;;;;;4991959;28;20137;-74
2021/12/16 06:27:01;;;;;;;45.42;14.07;;;;;;;;;;4986714;28;20145;-75
2021/12/16 06:29:28;;;;;;;51.42;14.82;;;;;;;;;;4994067;28;20129;-80
2021/12/16 06:31:56;;;;;;;48.33;14.07;;;;;;;;;;5005470;28;20141;-81
2021/12/16 06:34:24;;;;;;;48.47;14.48;;;;;;;;;;4996850;28;20129;-80
2021/12/16 06:36:52;;;;;;;39.38;12.35;;;;;;;;;;4996805;28;20108;-81
2021/12/16 06:39:20;;;;;;;41.38;11.73;;;;;;;;;;5009169;28;20132;-84
2021/12/16 06:41:48;;;;;;;37.13;11.88;;;;;;;;;;5002244;28;20093;-82
2021/12/16 06:44:23;;;;;;;41.35;12.02;;;;;;;;;;4998822;28;20491;-84
2021/12/16 06:46:56;;;;;;;36.63;10.48;;;;;;;;;;4997897;28;20940;-82
2021/12/16 06:49:24;;;;;;;36.10;12.15;;;;;;;;;;4997905;28;20078;-83
2021/12/16 06:51:57;;;;;;;34.05;10.32;;;;;;;;;;4996650;28;20073;-83
2021/12/16 06:54:29;;;;;;;29.58;9.82;;;;;;;;;;4996508;28;20088;-83
2021/12/16 06:57:22;;;;;;;43.28;11.48;;;;;;;;;;5009729;28;20081;-83
2021/12/16 06:59:55;;;;;;;28.75;8.57;;;;;;;;;;5017750;28;20068;-82
2021/12/16 07:03:18;;;;;;;25.38;6.70;;;;;;;;;;5003636;28;20054;-82
2021/12/16 07:05:30;;;;;;;25.15;5.97;;;;;;;;;;4990094;28;20050;-82
2021/12/16 07:07:57;;;;;;;25.63;7.07;;;;;;;;;;4999564;28;20085;-82
2021/12/16 07:10:25;;;;;;;30.20;6.28;;;;;;;;;;4994876;28;20129;-82
2021/12/16 07:12:54;;;;;;;20.98;6.13;;;;;;;;;;4994610;28;20089;-82
2021/12/16 07:15:24;;;;;;;16.17;5.43;;;;;;;;;;4994840;28;20475;-82
2021/12/16 07:17:52;;;;;;;31.73;6.43;;;;;;;;;;4994665;28;20082;-82
2021/12/16 07:20:21;;;;;;;23.83;5.85;;;;;;;;;;4995007;28;20133;-82
2021/12/16 07:22:49;;;;;;;33.05;5.82;;;;;;;;;;4992415;28;20077;-83
2021/12/16 07:25:16;;;;;;;20.20;6.10;;;;;;;;;;4998274;28;20073;-83
2021/12/16 07:27:44;;;;;;;24.33;5.90;;;;;;;;;;5005377;28;20141;-83
2021/12/16 07:30:13;;;;;;;19.10;5.72;;;;;;;;;;4997317;28;20061;-82
2021/12/16 07:32:40;;;;;;;17.45;4.90;;;;;;;;;;5007235;28;20142;-83
2021/12/16 07:35:19;;;;;;;16.90;4.55;;;;;;;;;;4996281;28;20080;-84
2021/12/16 07:37:47;;;;;;;11.98;4.30;;;;;;;;;;5001834;28;20128;-83
2021/12/16 07:40:15;;;;;;;13.15;3.97;;;;;;;;;;5000799;28;20073;-82
2021/12/16 07:42:58;;;;;;;13.10;3.90;;;;;;;;;;4993326;28;20070;-82
2021/12/16 07:45:27;;;;;;;19.77;3.78;;;;;;;;;;4994451;28;20538;-82
2021/12/16 07:47:54;;;;;;;9.98;3.13;;;;;;;;;;4994732;28;20499;-82
2021/12/16 07:50:22;;;;;;;14.25;4.65;;;;;;;;;;4994298;28;20053;-82
2021/12/16 07:52:50;;;;;;;15.52;3.85;;;;;;;;;;4992930;28;20112;-82
2021/12/16 07:55:18;;;;;;;12.73;4.07;;;;;;;;;;5004175;28;20131;-81
2021/12/16 07:57:46;;;;;;;12.50;3.30;;;;;;;;;;4998679;28;20505;-82
2021/12/16 08:00:22;;;;;;;9.20;3.40;;;;;;;;;;4993274;28;20126;-82
2021/12/16 08:02:50;;;;;;;8.73;2.90;;;;;;;;;;5002219;28;20034;-82
2021/12/16 08:05:18;;;;;;;11.07;2.75;;;;;;;;;;5010202;28;20043;-82
2021/12/16 08:07:46;;;;;;;10.07;2.83;;;;;;;;;;5001002;28;20128;-83
2021/12/16 08:10:14;;;;;;;10.63;2.55;;;;;;;;;;5002440;28;20050;-83
2021/12/16 08:12:41;;;;;;;11.40;2.40;;;;;;;;;;4992649;28;20125;-82
2021/12/16 08:15:09;;;;;;;13.20;2.78;;;;;;;;;;5001451;28;20052;-81
2021/12/16 08:17:36;;;;;;;11.70;2.50;;;9.20;99.90;;;;;;5013128;28;20100;-82
2021/12/16 08:20:05;;;;;;;8.45;2.53;;;;;;;;;;5010749;28;20482;-81
2021/12/16 08:22:31;;;;;;;13.02;3.10;;;9.20;99.90;;;;;;4993452;28;20554;-82
2021/12/16 08:24:59;;;;;;;7.32;2.53;;;;;;;;;;5001221;28;20084;-82
2021/12/16 08:27:26;;;;;;;8.80;2.30;;;;;;;;;;5000741;28;20058;-82
2021/12/16 08:29:53;;;;;;;11.27;1.98;;;;;;;;;;4992422;28;20104;-83
2021/12/16 08:32:21;;;;;;;9.80;2.05;;;;;;;;;;4993318;28;20109;-82
2021/12/16 08:34:48;;;;;;;11.55;2.15;;;;;;;;;;4993208;28;20050;-82
2021/12/16 08:37:15;;;;;;;13.27;2.25;;;;;;;;;;4996251;28;20046;-82
2021/12/16 08:39:44;;;;;;;10.00;2.00;;;;;;;;;;5004868;28;20129;-83
2021/12/16 08:42:11;;;;;;;8.00;1.95;;;;;;;;;;4994014;28;20050;-82
2021/12/16 08:44:39;;;;;;;13.50;2.53;;;;;;;;;;5000220;28;20077;-81
2021/12/16 08:47:08;;;;;;;11.70;2.92;;;;;;;;;;5011211;28;20085;-82
2021/12/16 08:49:36;;;;;;;8.55;2.33;;;;;;;;;;5012429;28;20061;-83
2021/12/16 08:52:06;;;;;;;9.88;3.90;;;;;;;;;;5011935;28;20129;-82
2021/12/16 08:54:34;;;;;;;12.98;2.80;;;;;;;;;;4999042;28;20129;-83
2021/12/16 08:57:01;;;;;;;11.25;2.55;;;;;;;;;;5003379;28;20065;-83
2021/12/16 08:59:29;;;;;;;16.05;2.88;;;;;;;;;;4999364;28;20073;-82
2021/12/16 09:01:57;;;;;;;19.30;2.95;;;;;;;;;;4991386;28;20050;-83
2021/12/16 09:04:25;;;;;;;18.55;2.63;;;;;;;;;;4992455;28;20074;-84
2021/12/16 09:06:53;;;;;;;15.43;2.83;;;;;;;;;;4992822;28;20547;-83
2021/12/16 09:09:21;;;;;;;13.20;2.67;;;;;;;;;;4998719;28;20054;-83
2021/12/16 09:12:04;;;;;;;16.20;2.67;;;;;;;;;;4992176;28;20503;-83
2021/12/16 09:14:32;;;;;;;16.98;3.05;;;;;;;;;;5000850;28;20445;-82
2021/12/16 09:17:00;;;;;;;11.85;2.78;;;;;;;;;;5009218;28;20050;-83
2021/12/16 09:19:27;;;;;;;19.38;2.90;;;;;;;;;;5012031;28;20050;-83
2021/12/16 09:21:54;;;;;;;21.88;3.17;;;;;;;;;;5012350;28;20132;-83
2021/12/16 09:24:22;;;;;;;14.93;3.42;;;;;;;;;;5003947;28;20142;-82
2021/12/16 09:26:49;;;;;;;27.15;6.15;;;;;;;;;;4994441;28;20713;-83
2021/12/16 09:29:19;;;;;;;17.27;2.92;;;;;;;;;;5001187;28;20046;-83
2021/12/16 09:31:46;;;;;;;14.98;4.20;;;;;;;;;;4993935;28;20137;-83
2021/12/16 09:34:13;;;;;;;10.85;2.80;;;;;;;;;;4989261;28;20141;-82
2021/12/16 09:36:43;;;;;;;17.67;4.07;;;;;;;;;;4991816;28;20148;-82
2021/12/16 09:39:13;;;;;;;25.15;4.60;;;;;;;;;;5002185;28;20085;-82
2021/12/16 09:41:46;;;;;;;13.30;3.78;;;;;;;;;;4996664;28;20054;-82
2021/12/16 09:44:13;;;;;;;21.38;4.88;;;;;;;;;;4992399;28;20145;-82
2021/12/16 09:46:44;;;;;;;13.88;2.90;;;;;;;;;;4991143;28;20097;-83
2021/12/16 09:49:12;;;;;;;12.35;2.50;;;;;;;;;;4992087;28;20097;-82
2021/12/16 09:51:41;;;;;;;17.23;3.30;;;;;;;;;;4992278;28;20711;-82
2021/12/16 09:54:10;;;;;;;20.25;3.72;;;;;;;;;;4993627;28;20745;-82
2021/12/16 09:56:39;;;;;;;20.05;3.22;;;;;;;;;;4997809;28;20089;-83
2021/12/16 09:59:07;;;;;;;21.00;3.50;;;;;;;;;;5000323;28;20081;-83
2021/12/16 10:01:35;;;;;;;11.82;2.53;;;;;;;;;;4991789;28;20050;-82
2021/12/16 10:04:03;;;;;;;23.85;3.00;;;;;;;;;;4991954;28;20153;-82
2021/12/16 10:06:32;;;;;;;23.77;2.85;;;;;;;;;;4990341;28;20050;-83
2021/12/16 10:09:01;;;;;;;14.50;2.80;;;;;;;;;;5000345;28;20089;-83
2021/12/16 10:11:29;;;;;;;21.58;3.15;;;;;;;;;;4997601;28;20100;-83
2021/12/16 10:14:05;;;;;;;18.45;3.28;;;;;;;;;;4992066;28;20118;-84
2021/12/16 10:19:21;;;;;;;15.93;3.80;;;;;;;;;;4991293;28;20440;-82
2021/12/16 10:21:48;;;;;;;8.00;2.97;;;;;;;;;;4991729;28;20086;-83
2021/12/16 10:24:27;;;;;;;17.98;2.75;;;;;;;;;;4999981;28;20043;-82
2021/12/16 10:27:09;;;;;;;16.27;2.75;;;;;;;;;;5001744;28;20116;-83
2021/12/16 10:29:42;;;;;;;17.77;3.08;;;;;;;;;;4972036;28;20078;-83
2021/12/16 10:32:29;;;;;;;23.08;3.50;;;;;;;;;;4972138;28;20086;-83
2021/12/16 10:34:58;;;;;;;18.83;2.95;;;;;;;;;;4987155;28;20059;-83
2021/12/16 10:37:33;;;;;;;21.67;3.33;;;;;;;;;;4993904;28;20077;-82
2021/12/16 10:40:20;;;;;;;22.92;3.50;;;;;;;;;;5003058;28;20050;-83
2021/12/16 10:42:47;;;;;;;13.32;2.88;;;;;;;;;;4994689;28;20964;-83
2021/12/16 10:45:30;;;;;;;18.48;2.80;;;;;;;;;;4994645;28;20137;-82
2021/12/16 10:48:08;;;;;;;22.98;4.40;;;;;;;;;;4994312;28;20062;-83
2021/12/16 10:50:54;;;;;;;18.88;3.00;;;;;;;;;;4993708;28;20088;-83
2021/12/16 10:53:40;;;;;;;23.73;3.55;;;;;;;;;;4996852;28;20132;-83
2021/12/16 10:56:07;;;;;;;17.88;3.47;;;;;;;;;;4996699;28;20144;-82
2021/12/16 10:58:53;;;;;;;18.15;3.50;;;;;;;;;;4996807;28;20141;-84
2021/12/16 11:01:39;;;;;;;24.08;3.78;;;;;;;;;;4991132;28;20133;-83
2021/12/16 11:04:09;;;;;;;21.63;3.60;;;;;;;;;;4988780;28;20567;-82
2021/12/16 11:06:39;;;;;;;23.52;3.38;;;;;;;;;;4989636;28;20080;-83
2021/12/16 11:09:42;;;;;;;18.45;2.97;;;;;;;;;;4999118;28;20062;-83
2021/12/16 11:12:19;;;;;;;25.40;3.83;;;;;;;;;;4942332;29;20193;-83
2021/12/16 11:14:54;;;;;;;15.43;3.03;;;;;;;;;;4974591;28;20137;-84
2021/12/16 11:17:22;;;;;;;17.30;3.22;;;;;;;;;;4993267;28;20073;-83
2021/12/16 11:20:00;;;;;;;25.50;3.78;;;;;;;;;;4994439;28;20082;-84
2021/12/16 11:22:33;;;;;;;15.02;3.05;;;;;;;;;;4994985;28;20447;-83
2021/12/16 11:25:12;;;;;;;26.60;4.15;;;;;;;;;;5002225;28;20073;-83
2021/12/16 11:27:39;;;;;;;18.25;3.83;;;;;;;;;;5002198;28;20801;-83
2021/12/16 11:30:25;;;;;;;14.68;2.83;;;;;;;;;;4993760;28;20507;-83
2021/12/16 11:33:03;;;;;;;24.38;4.07;;;;;;;;;;4994035;28;20073;-84
2021/12/16 11:35:36;;;;;;;23.85;3.60;;;;;;;;;;4993721;28;20089;-83
2021/12/16 11:38:13;;;;;;;23.77;4.05;;;;;;;;;;4992075;28;20574;-84
2021/12/16 11:40:53;;;;;;;14.38;2.90;;;;;;;;;;5016254;28;20060;-79
2021/12/16 11:43:30;;;;;;;25.58;3.80;;;;;;;;;;5013803;28;20141;-82
2021/12/16 11:45:57;;;;;;;28.75;4.28;;;;;;;;;;5003489;28;20463;-82
2021/12/16 11:48:29;;;;;;;25.65;3.08;;;;;;;;;;4994210;28;20105;-82
2021/12/16 11:51:03;;;;;;;20.65;3.35;;;;;;;;;;4993073;28;20081;-81
2021/12/16 11:53:35;;;;;;;19.58;3.10;;;;;;;;;;4996108;28;20050;-82
2021/12/16 11:56:02;;;;;;;24.05;3.63;;;;;;;;;;4996362;28;20050;-82
2021/12/16 11:58:31;;;;;;;18.27;3.92;;;;;;;;;;4996689;28;20050;-82
2021/12/16 12:00:58;;;;;;;25.00;3.50;;;;;;;;;;5013272;28;20777;-82
2021/12/16 12:03:33;;;;;;;20.35;3.58;;;;;;;;;;5013269;28;20136;-82
2021/12/16 12:06:00;;;;;;;20.27;3.50;;;;;;;;;;5000806;28;20053;-82
2021/12/16 12:08:30;;;;;;;23.48;4.32;;;;;;;;;;4998316;28;20054;-81
2021/12/16 12:10:59;;;;;;;25.05;3.85;;;;;;;;;;4995184;28;20062;-82
2021/12/16 12:13:34;;;;;;;22.52;3.10;;;;;;;;;;4993893;28;20058;-83
2021/12/16 12:16:10;;;;;;;20.75;3.80;;;;;;;;;;4993876;28;20137;-81
2021/12/16 12:18:42;;;;;;;29.13;3.95;;;;;;;;;;4993879;28;20086;-82
2021/12/16 12:21:28;;;;;;;28.63;3.47;;;;;;;;;;4992495;28;20085;-81
2021/12/16 12:24:03;;;;;;;26.65;3.38;;;;;;;;;;4993479;28;20078;-81
2021/12/16 12:26:30;;;;;;;;;;;;;;;;;;4989138;28;20149;-82
2021/12/16 12:29:00;;;;;;;21.23;2.85;;;;;;;;;;4997096;28;19931;-82
2021/12/16 12:31:30;;;;;;;28.00;3.28;;;;;;;;;;4993542;28;20058;-81
2021/12/16 12:33:58;;;;;;;22.35;3.22;;;;;;;;;;4993457;28;20602;-82
2021/12/16 12:36:25;;;;;;;12.60;3.15;;;;;;;;;;4993121;28;20054;-82
2021/12/16 12:38:53;;;;;;;18.70;3.47;;;;;;;;;;5001583;28;20541;-82
2021/12/16 12:41:22;;;;;;;19.00;2.78;;;;;;;;;;5011578;28;20089;-82
2021/12/16 12:43:50;;;;;;;23.10;2.58;;;;;;;;;;5011771;28;20483;-82
2021/12/16 12:46:18;;;;;;;33.78;4.72;;;;;;;;;;5000918;28;20466;-82
2021/12/16 12:48:47;;;;;;;28.83;3.75;;;;;;;;;;4993287;28;20050;-82
2021/12/16 12:51:14;;;;;;;13.65;3.50;;;;;;;;;;4992841;28;20108;-83
2021/12/16 12:53:49;;;;;;;21.30;4.22;;;;;;;;;;4997752;28;20082;-83
2021/12/16 12:56:22;;;;;;;25.17;2.97;;;;;;;;;;4996070;28;20057;-82
2021/12/16 12:58:52;;;;;;;16.33;2.83;;;;;;;;;;4997545;28;20123;-83
2021/12/16 13:01:32;;;;;;;29.98;4.10;;;;;;;;;;4992238;28;20704;-82
2021/12/16 13:04:04;;;;;;;29.48;3.15;;;;;;;;;;4991419;28;20125;-83
2021/12/16 13:06:31;;;;;;;21.58;4.50;;;;;;;;;;4991818;28;20507;-82
2021/12/16 13:09:03;;;;;;;21.13;3.22;;;;;;;;;;5000754;28;20137;-83
2021/12/16 13:11:30;;;;;;;18.08;3.78;;;;;;;;;;5011935;28;20816;-82
2021/12/16 13:14:07;;;;;;;15.70;2.67;;;;;;;;;;5004846;28;20054;-84
2021/12/16 13:27:59;;;;;;;19.33;3.10;;;;;;;;;;5000636;28;20089;-84
2021/12/16 13:30:31;;;;;;;18.08;3.83;;;;;;;;;;4991838;28;20124;-83
2021/12/16 13:33:25;;;;;;;33.25;4.03;;;;;;;;;;4972493;28;20734;-83
2021/12/16 13:36:03;;;;;;;25.15;3.67;;;;;;;;;;4976274;28;20570;-82
2021/12/16 13:38:38;;;;;;;40.20;6.32;;;;;;;;;;4996811;28;20085;-84
2021/12/16 13:41:09;;;;;;;21.45;2.88;;;;;;;;;;4994637;28;20088;-83
2021/12/16 13:43:38;;;;;;;20.60;3.95;;;;;;;;;;4985778;28;20106;-85
2021/12/16 13:46:30;;;;;;;24.38;4.00;;;;;;;;;;4988414;28;20092;-84
2021/12/16 13:58:16;;;;;;;28.75;4.65;;;;;;;;;;4983054;28;20086;-84
2021/12/16 14:03:43;;;;;;;27.90;4.57;;;;;;;;;;4989852;28;20046;-82
2021/12/16 14:06:20;;;;;;;36.25;4.85;;;;;;;;;;4997812;28;20104;-83
2021/12/16 14:08:52;;;;;;;25.88;3.90;;;;;;;;;;4993743;28;20061;-84
2021/12/16 14:12:14;;;;;;;25.08;3.75;;;;;;;;;;4984627;28;20054;-74
2021/12/16 14:14:46;;;;;;;21.73;3.78;;;;;;;;;;4980421;28;20137;-74
2021/12/16 14:17:40;;;;;;;19.88;3.38;;;;;;;;;;5004297;28;20502;-75
2021/12/16 14:23:16;;;;;;;21.63;3.78;;;;;;;;;;4989620;28;20056;-75
2021/12/16 14:26:10;;;;;;;28.27;3.28;;;;;;;;;;4989530;28;20054;-74
2021/12/16 14:42:21;;;;;;;25.70;4.43;;;;;;;;;;4982969;28;20551;-75
2021/12/16 14:47:56;;;;;;;19.05;3.40;;;;;;;;;;4983427;28;20053;-75
2021/12/16 14:50:25;;;;;;;35.60;3.88;;;;;;;;;;4981859;28;20058;-76
2021/12/16 14:52:52;;;;;;;32.08;6.30;;;;;;;;;;4986673;28;20551;-76
2021/12/16 14:55:20;;;;;;;35.38;4.38;;;;;;;;;;4986497;28;20054;-76
2021/12/16 14:57:50;;;;;;;25.33;3.92;;;;;;;;;;4983174;28;20046;-76
2021/12/16 15:00:17;;;;;;;34.90;4.70;;;;;;;;;;4985127;28;20117;-76
2021/12/16 15:02:46;;;;;;;44.85;5.40;;;;;;;;;;4977756;28;20046;-76
2021/12/16 15:05:21;;;;;;;24.13;4.53;;;;;;;;;;4986165;28;20050;-76
2021/12/16 15:07:52;;;;;;;28.75;5.40;;;;;;;;;;5007224;28;20061;-77
2021/12/16 15:10:19;;;;;;;30.60;4.25;;;;;;;;;;4988085;28;20052;-77
2021/12/16 15:12:57;;;;;;;25.98;5.07;;;;;;;;;;5001697;28;20116;-77
2021/12/16 15:15:34;;;;;;;34.50;4.53;;;;;;;;;;4984860;28;20400;-78
2021/12/16 15:33:48;;;;;;;34.85;6.57;;;;;;;;;;4983815;28;20051;-86
2021/12/16 15:40:34;;;;;;;32.72;5.45;;;;;;;;;;4995058;28;20546;-83
2021/12/16 15:43:04;;;;;;;35.25;7.00;;;;;;;;;;4997242;28;20077;-82
2021/12/16 15:45:31;;;;;;;38.75;6.97;;;;;;;;;;5020751;28;20085;-83
2021/12/16 15:48:18;;;;;;;33.13;6.45;;;;;;;;;;5005280;28;20458;-82
2021/12/16 15:50:55;;;;;;;41.80;7.18;;;;;;;;;;4990557;28;20466;-82
2021/12/16 15:53:32;;;;;;;36.63;6.45;;;;;;;;;;4991515;28;21397;-83
2021/12/16 15:56:05;;;;;;;36.35;6.68;;;;;;;;;;4992240;28;20159;-82
2021/12/16 15:58:41;;;;;;;37.13;7.15;;;;;;;;;;4996262;28;20418;-84
2021/12/16 16:01:28;;;;;;;31.45;6.82;;;;;;;;;;4979512;28;20054;-82
2021/12/16 16:03:57;;;;;;;29.55;5.38;;;;;;;;;;4992934;28;20069;-81
2021/12/16 16:06:26;;;;;;;30.65;5.53;;;;;;;;;;5000031;28;20456;-82
2021/12/16 16:08:54;;;;;;;29.35;6.38;;;;;;;;;;4995306;28;20078;-85
2021/12/16 16:11:26;;;;;;;40.78;6.13;;;;;;;;;;4994714;28;20054;-82
2021/12/16 16:13:57;;;;;;;23.98;5.20;;;;;;;;;;4989478;28;20081;-83
2021/12/16 16:16:38;;;;;;;28.73;5.07;;;;;;;;;;4992803;28;20049;-81
2021/12/16 16:19:09;;;;;;;34.67;5.05;;;;;;;;;;4987427;28;20976;-83
2021/12/16 16:21:41;;;;;;;26.73;4.65;;;;;;;;;;5001749;28;20133;-82
2021/12/16 16:24:12;;;;;;;34.50;5.55;;;;;;;;;;5005244;28;20046;-83
2021/12/16 16:26:40;;;;;;;25.85;4.57;;;;;;;;;;5001891;28;20062;-83
2021/12/16 16:29:10;;;;;;;31.35;5.13;;;;;;;;;;4994903;28;20161;-84
2021/12/16 16:31:37;;;;;;;28.90;4.70;;;;;;;;;;4997109;28;20129;-84
2021/12/16 16:34:13;;;;;;;52.05;7.28;;;;;;;;;;4990766;28;20081;-83
2021/12/16 16:36:54;;;;;;;;;;;;;;;;;;5005491;28;20085;-83
2021/12/16 16:39:30;;;;;;;33.30;7.20;;;;;;;;;;4991482;28;19925;-82
2021/12/16 16:41:59;;;;;;;41.30;5.82;;;;;;;;;;4984551;28;20137;-85
2021/12/16 16:44:27;;;;;;;35.78;6.65;;;;;;;;;;4993111;28;20080;-86
2021/12/16 16:46:59;;;;;;;32.35;5.30;;;;;;;;;;4992971;28;20762;-86
2021/12/16 16:49:31;;;;;;;36.00;4.82;;;;;;;;;;5003442;28;20086;-85
2021/12/16 16:51:59;;;;;;;44.45;6.80;;;;;;;;;;4998931;28;20101;-86
2021/12/16 16:54:27;;;;;;;35.55;5.25;;;;;;;;;;5007770;28;20042;-85
2021/12/16 16:57:14;;;;;;;27.83;5.88;;;;;;;;;;4996603;28;20081;-86
2021/12/16 16:59:57;;;;;;;31.42;5.38;;;;;;;;;;4988860;28;20081;-86
2021/12/16 17:02:32;;;;;;;34.50;6.20;;;;;;;;;;5002030;28;20046;-85
2021/12/16 17:05:05;;;;;;;36.03;6.20;;;;;;;;;;4976633;28;20059;-85
2021/12/16 17:08:01;;;;;;;36.63;6.47;;;;;;;;;;4994650;28;20502;-86
2021/12/16 17:10:40;;;;;;;32.92;6.55;;;;;;;;;;4988109;28;20133;-86
2021/12/16 17:13:23;;;;;;;43.30;6.13;;;;;;;;;;4984284;28;20462;-84
2021/12/16 17:18:25;;;;;;;35.65;5.60;;;;;;;;;;4984348;28;20050;-83
2021/12/16 17:20:56;;;;;;;45.60;5.82;;;;;;;;;;4987813;28;20046;-84
2021/12/16 17:23:26;;;;;;;32.90;5.75;;;;;;;;;;5013722;28;20065;-84
2021/12/16 17:25:53;;;;;;;40.60;6.63;;;;;;;;;;5000100;28;20084;-83
2021/12/16 17:28:24;;;;;;;38.28;6.38;;;;;;;;;;4992852;28;20050;-77
2021/12/16 17:30:51;;;;;;;36.85;8.98;;;;;;;;;;4984141;28;20058;-76
2021/12/16 17:33:22;;;;;;;32.47;7.05;;;;;;;;;;4985219;28;20089;-77
2021/12/16 17:35:50;;;;;;;36.53;7.05;;;;;;;;;;5011371;28;20722;-77
2021/12/16 17:38:23;;;;;;;57.88;6.60;;;;;;;;;;4991032;28;20092;-76
2021/12/16 17:41:00;;;;;;;39.03;5.70;;;;;;;;;;4999372;28;20140;-76
2021/12/16 17:43:33;;;;;;;46.65;6.97;;;;;;;;;;4987877;28;20165;-77
2021/12/16 17:46:00;;;;;;;36.30;5.90;;;;;;;;;;4985536;28;20081;-76
2021/12/16 17:48:33;;;;;;;45.58;6.72;;;;;;;;;;4986029;28;20126;-77
2021/12/16 17:51:11;;;;;;;121.80;43.90;;;;;;;;;;4984950;28;20061;-76
2021/12/16 17:53:46;;;;;;;55.40;11.55;;;;;;;;;;4984837;28;20121;-77
2021/12/16 17:56:17;;;;;;;60.45;10.60;;;;;;;;;;4998549;28;20535;-77
2021/12/16 17:58:48;;;;;;;41.95;6.60;;;;;;;;;;4986799;28;20145;-77
2021/12/16 18:01:23;;;;;;;39.05;6.53;;;;;;;;;;4985921;28;20046;-77
2021/12/16 18:03:55;;;;;;;49.25;12.48;;;;;;;;;;4985432;28;20061;-76
2021/12/16 18:06:24;;;;;;;39.65;5.82;;;;;;;;;;4985070;28;20053;-76
2021/12/16 18:08:57;;;;;;;33.65;6.80;;;;;;;;;;4987838;28;20125;-77
2021/12/16 18:11:32;;;;;;;58.53;15.48;;;;;;;;;;5001887;28;20845;-77
2021/12/16 18:14:01;;;;;;;48.95;16.60;;;;;;;;;;5002192;28;20092;-77
2021/12/16 18:16:31;;;;;;;56.50;17.85;;;;;;;;;;4995690;28;20062;-83
2021/12/16 18:19:00;;;;;;;31.10;5.97;;;;;;;;;;4989052;28;20054;-83
2021/12/16 18:21:35;;;;;;;28.38;4.72;;;;;;;;;;4988810;28;20084;-84
2021/12/16 18:24:03;;;;;;;38.90;5.45;;;;;;;;;;5001533;28;20076;-83
2021/12/16 18:26:31;;;;;;;34.60;5.28;;;;;;;;;;5002128;28;20081;-83